COYOTE (LAKE MENDOCINO) (COY)

Elevation: 720' · RUSSIAN R basin · Operator: US Army Corps of Engineers

Provisional data, subject to change.
Query executed Tuesday at 8:57:37   clock

Select a sensor type for a plot of data.
Note: Reservoir Flows are daily averages.

Earlier

Date RES ELE    STORAGE    RES CHG    TOC STO    ABV TOC    OUTFLOW    INFLOW    PPT INC    TEMP MN    TEMP MX    EVP PAN   
 FEET   AF   AF   AF   AF   CFS   CFS   INCHES   DEG F   DEG F   INCHES  
08/02/2015 724.22 47491 -221 86370 -38879 143 46 0.00 15 34 0.29
08/03/2015 724.09 47299 -192 86370 -39071 145 60 0.00 12 28 0.24
08/04/2015 723.97 47122 -177 86370 -39248 142 57 0.00 13 23 0.09
08/05/2015 723.81 46887 -235 86370 -39483 138 33 0.00 11 34 0.26
08/06/2015 723.65 46652 -235 86370 -39718 134 30 0.00 12 37 0.29
08/07/2015 723.51 46448 -204 86370 -39922 134 44 0.00 16 32 0.25
08/08/2015 723.37 46243 -205 86370 -40127 130 40 0.00 12 32 0.26
08/09/2015 723.21 46010 -233 86370 -40360 128 25 0.00 11 33 0.29
08/10/2015 723.07 45806 -204 86370 -40564 128 38 0.00 15 31 0.26
08/11/2015 722.92 45588 -218 86370 -40782 129 30 0.00 15 30 0.22
08/12/2015 722.77 45370 -218 86370 -41000 130 33 0.00 9 29 0.26
08/13/2015 722.60 45124 -246 86370 -41246 131 20 0.00 11 30 0.26
08/14/2015 722.44 44893 -231 86370 -41477 131 27 0.00 10 28 0.25
08/15/2015 722.30 44691 -202 86370 -41679 129 40 0.00 12 38 0.26
08/16/2015 722.15 44475 -216 86370 -41895 125 30 0.00 14 41 0.28
08/17/2015 722.02 44289 -186 86370 -42081 123 43 0.00 15 42 0.29
08/18/2015 721.89 44102 -187 86370 -42268 118 38 0.00 -2 38 0.29
08/19/2015 721.75 43902 -200 86370 -42468 116 25 0.00 -38 34 0.21
08/20/2015 721.62 43716 -186 86370 -42654 116 34 0.00 13 35 0.25
08/21/2015 721.50 43545 -171 86370 -42825 110 37 0.00 12 36 0.28
08/22/2015 721.38 43374 -171 86370 -42996 107 33 0.00 13 32 0.26
08/23/2015 721.26 43203 -171 86370 -43167 107 33 0.00 14 33 0.25
08/24/2015 721.14 43033 -170 86370 -43337 107 34 0.00 12 35 0.26
08/25/2015 721.03 42877 -156 86370 -43493 106 41 0.00 12 37 0.27
08/26/2015 720.89 42679 -- 86370 -43691 110 23 0.00 12 37 0.27
08/27/2015 720.75 42481 -198 86370 -43889 110 23 0.00 12 36 0.27
08/28/2015 720.61 42284 -197 86370 -44086 110 23 0.00 17 37 0.25
08/29/2015 720.49 42115 -169 86370 -44255 110 36 0.00 16 29 0.24
08/30/2015 720.35 41919 -196 86370 -44451 110 22 0.00 13 27 0.22
08/31/2015 720.22 41737 -182 86370 -44633 107 28 0.00 11 32 0.25
09/01/2015 -- -- -- -- -- -- -- -- -- -- --

Later | Latest

Warning! This data is preliminary and subject to revision.

Show COY Map | Plot COY Data | 1 Month COY Data | Real-Time COY Data | COY Info